sensor_id;sensor_type;location;lat;lon;timestamp;P1;durP1;ratioP1;P2;durP2;ratioP2
78141;SDS011;67393;52.620;13.482;2023-03-01T16:57:00;9.02;;;3.35;;
78141;SDS011;67393;52.620;13.482;2023-03-01T16:59:26;4.70;;;2.85;;
78141;SDS011;67393;52.620;13.482;2023-03-01T17:01:53;8.35;;;3.28;;
78141;SDS011;67393;52.620;13.482;2023-03-01T17:04:19;5.93;;;2.95;;
78141;SDS011;67393;52.620;13.482;2023-03-01T17:06:45;6.40;;;3.60;;
78141;SDS011;67393;52.620;13.482;2023-03-01T17:09:12;5.68;;;2.67;;
78141;SDS011;67393;52.620;13.482;2023-03-01T17:11:38;6.18;;;3.40;;
78141;SDS011;67393;52.620;13.482;2023-03-01T17:14:04;8.38;;;3.50;;
78141;SDS011;67393;52.620;13.482;2023-03-01T17:16:31;13.27;;;4.53;;
78141;SDS011;67393;52.620;13.482;2023-03-01T17:18:57;11.13;;;3.97;;
78141;SDS011;67393;52.620;13.482;2023-03-01T17:21:26;10.05;;;4.32;;
78141;SDS011;67393;52.620;13.482;2023-03-01T17:23:55;8.55;;;3.88;;
78141;SDS011;67393;52.620;13.482;2023-03-01T17:26:22;9.13;;;4.32;;
78141;SDS011;67393;52.620;13.482;2023-03-01T17:28:49;11.07;;;4.25;;
78141;SDS011;67393;52.620;13.482;2023-03-01T17:31:15;9.10;;;3.70;;
78141;SDS011;67393;52.620;13.482;2023-03-01T17:33:41;8.15;;;3.63;;
78141;SDS011;67393;52.620;13.482;2023-03-01T17:36:08;9.02;;;4.00;;
78141;SDS011;67393;52.620;13.482;2023-03-01T17:38:34;9.00;;;3.88;;
78141;SDS011;67393;52.620;13.482;2023-03-01T17:41:01;9.27;;;3.67;;
78141;SDS011;67393;52.620;13.482;2023-03-01T17:43:27;12.65;;;4.13;;
78141;SDS011;67393;52.620;13.482;2023-03-01T17:45:53;15.85;;;4.40;;
78141;SDS011;67393;52.620;13.482;2023-03-01T17:48:21;8.32;;;4.45;;
78141;SDS011;67393;52.620;13.482;2023-03-01T17:50:47;17.13;;;4.80;;
78141;SDS011;67393;52.620;13.482;2023-03-01T17:53:14;8.90;;;4.28;;
78141;SDS011;67393;52.620;13.482;2023-03-01T17:55:41;7.20;;;3.95;;
78141;SDS011;67393;52.620;13.482;2023-03-01T17:58:09;12.55;;;4.63;;
78141;SDS011;67393;52.620;13.482;2023-03-01T18:00:38;8.52;;;4.03;;
78141;SDS011;67393;52.620;13.482;2023-03-01T18:03:05;9.13;;;4.25;;
78141;SDS011;67393;52.620;13.482;2023-03-01T18:05:34;7.65;;;4.50;;
78141;SDS011;67393;52.620;13.482;2023-03-01T18:08:02;11.13;;;4.80;;
78141;SDS011;67393;52.620;13.482;2023-03-01T18:10:30;14.10;;;5.00;;
78141;SDS011;67393;52.620;13.482;2023-03-01T18:12:56;10.73;;;5.07;;
78141;SDS011;67393;52.620;13.482;2023-03-01T18:15:23;10.00;;;4.90;;
78141;SDS011;67393;52.620;13.482;2023-03-01T18:17:49;16.10;;;4.95;;
78141;SDS011;67393;52.620;13.482;2023-03-01T18:20:15;11.20;;;5.25;;
78141;SDS011;67393;52.620;13.482;2023-03-01T18:22:42;11.77;;;5.07;;
78141;SDS011;67393;52.620;13.482;2023-03-01T18:25:08;14.77;;;4.53;;
78141;SDS011;67393;52.620;13.482;2023-03-01T18:27:35;12.38;;;4.57;;
78141;SDS011;67393;52.620;13.482;2023-03-01T18:30:02;10.20;;;4.97;;
78141;SDS011;67393;52.620;13.482;2023-03-01T18:32:29;9.73;;;4.65;;
78141;SDS011;67393;52.620;13.482;2023-03-01T18:34:56;10.18;;;4.93;;
78141;SDS011;67393;52.620;13.482;2023-03-01T18:37:22;9.18;;;4.88;;
78141;SDS011;67393;52.620;13.482;2023-03-01T18:39:49;10.13;;;4.32;;
78141;SDS011;67393;52.620;13.482;2023-03-01T18:42:17;12.98;;;4.25;;
78141;SDS011;67393;52.620;13.482;2023-03-01T18:44:43;11.32;;;5.10;;
78141;SDS011;67393;52.620;13.482;2023-03-01T18:47:09;12.77;;;4.78;;
78141;SDS011;67393;52.620;13.482;2023-03-01T18:49:36;10.40;;;4.72;;
78141;SDS011;67393;52.620;13.482;2023-03-01T18:52:02;10.40;;;4.35;;
78141;SDS011;67393;52.620;13.482;2023-03-01T18:54:29;11.75;;;5.15;;
78141;SDS011;67393;52.620;13.482;2023-03-01T18:56:55;14.98;;;5.55;;
78141;SDS011;67393;52.620;13.482;2023-03-01T18:59:21;10.18;;;4.57;;
78141;SDS011;67393;52.620;13.482;2023-03-01T19:01:48;11.40;;;4.85;;
78141;SDS011;67393;52.620;13.482;2023-03-01T19:04:14;12.00;;;6.22;;
78141;SDS011;67393;52.620;13.482;2023-03-01T19:06:40;9.60;;;4.57;;
78141;SDS011;67393;52.620;13.482;2023-03-01T19:09:07;14.88;;;5.95;;
78141;SDS011;67393;52.620;13.482;2023-03-01T19:11:34;21.52;;;6.18;;
78141;SDS011;67393;52.620;13.482;2023-03-01T19:14:00;13.05;;;5.65;;
78141;SDS011;67393;52.620;13.482;2023-03-01T19:16:28;13.52;;;6.00;;
78141;SDS011;67393;52.620;13.482;2023-03-01T19:19:00;18.10;;;7.13;;
78141;SDS011;67393;52.620;13.482;2023-03-01T19:21:29;15.23;;;6.15;;
78141;SDS011;67393;52.620;13.482;2023-03-01T19:23:57;12.73;;;6.35;;
78141;SDS011;67393;52.620;13.482;2023-03-01T19:26:25;15.82;;;6.43;;
78141;SDS011;67393;52.620;13.482;2023-03-01T19:31:21;11.50;;;5.40;;
78141;SDS011;67393;52.620;13.482;2023-03-01T19:33:49;13.93;;;5.72;;
78141;SDS011;67393;52.620;13.482;2023-03-01T19:36:19;14.00;;;6.15;;
78141;SDS011;67393;52.620;13.482;2023-03-01T19:38:46;21.30;;;6.45;;
78141;SDS011;67393;52.620;13.482;2023-03-01T19:41:14;17.58;;;5.43;;
78141;SDS011;67393;52.620;13.482;2023-03-01T19:43:42;10.57;;;4.88;;
78141;SDS011;67393;52.620;13.482;2023-03-01T19:46:10;15.90;;;5.70;;
78141;SDS011;67393;52.620;13.482;2023-03-01T19:48:37;12.90;;;5.68;;
78141;SDS011;67393;52.620;13.482;2023-03-01T19:51:03;19.33;;;5.97;;
78141;SDS011;67393;52.620;13.482;2023-03-01T19:53:30;12.85;;;4.95;;
78141;SDS011;67393;52.620;13.482;2023-03-01T19:55:57;9.48;;;4.32;;
78141;SDS011;67393;52.620;13.482;2023-03-01T20:00:56;23.88;;;4.55;;
78141;SDS011;67393;52.620;13.482;2023-03-01T20:03:24;11.10;;;5.47;;
78141;SDS011;67393;52.620;13.482;2023-03-01T20:05:54;12.10;;;5.13;;
78141;SDS011;67393;52.620;13.482;2023-03-01T20:08:21;19.17;;;5.55;;
78141;SDS011;67393;52.620;13.482;2023-03-01T20:10:48;11.07;;;4.97;;
78141;SDS011;67393;52.620;13.482;2023-03-01T20:13:14;8.57;;;4.63;;
78141;SDS011;67393;52.620;13.482;2023-03-01T20:15:41;12.80;;;4.45;;
78141;SDS011;67393;52.620;13.482;2023-03-01T20:18:09;10.90;;;5.22;;
78141;SDS011;67393;52.620;13.482;2023-03-01T20:25:28;12.55;;;4.57;;
